createdAt,value
2022-12-16T00:02:25.263Z,42.78
2022-12-16T00:04:52.010Z,42.88
2022-12-16T00:07:18.634Z,40.90
2022-12-16T00:09:45.265Z,41.92
2022-12-16T00:12:11.948Z,42.15
2022-12-16T00:14:38.541Z,41.83
2022-12-16T00:17:05.339Z,41.13
2022-12-16T00:19:32.055Z,41.20
2022-12-16T00:21:58.696Z,44.05
2022-12-16T00:24:25.341Z,42.08
2022-12-16T00:26:52.345Z,40.47
2022-12-16T00:29:19.052Z,41.28
2022-12-16T00:31:47.989Z,40.08
2022-12-16T00:34:16.345Z,40.50
2022-12-16T00:36:43.886Z,39.83
2022-12-16T00:39:11.081Z,41.67
2022-12-16T00:41:38.025Z,41.58
2022-12-16T00:44:05.270Z,41.42
2022-12-16T00:46:31.973Z,40.17
2022-12-16T00:48:58.608Z,41.22
2022-12-16T00:51:25.697Z,41.70
2022-12-16T00:53:52.364Z,41.13
2022-12-16T00:56:19.352Z,42.17
2022-12-16T00:58:46.210Z,40.92
2022-12-16T01:01:13.106Z,44.53
2022-12-16T01:03:40.209Z,39.13
2022-12-16T01:06:17.671Z,40.78
2022-12-16T01:08:50.590Z,38.58
2022-12-16T01:11:19.574Z,38.80
2022-12-16T01:13:46.889Z,40.80
2022-12-16T01:16:14.283Z,38.60
2022-12-16T01:18:40.934Z,40.35
2022-12-16T01:21:11.158Z,41.63
2022-12-16T01:23:37.799Z,40.25
2022-12-16T01:26:04.490Z,39.88
2022-12-16T01:28:31.251Z,41.60
2022-12-16T01:31:02.111Z,39.97
2022-12-16T01:33:30.805Z,41.35
2022-12-16T01:36:06.968Z,41.83
2022-12-16T01:38:34.826Z,41.65
2022-12-16T01:41:02.077Z,40.08
2022-12-16T01:43:33.183Z,40.88
2022-12-16T01:48:45.751Z,38.88
2022-12-16T01:51:26.472Z,38.08
2022-12-16T01:53:57.829Z,37.67
2022-12-16T01:58:55.227Z,36.33
2022-12-16T02:01:22.675Z,38.30
2022-12-16T02:03:51.528Z,39.97
2022-12-16T02:06:19.024Z,38.92
2022-12-16T02:08:45.734Z,38.00
2022-12-16T02:11:26.955Z,37.72
2022-12-16T02:14:28.731Z,36.03
2022-12-16T02:17:14.687Z,38.85
2022-12-16T02:20:10.188Z,39.47
2022-12-16T02:22:58.744Z,37.33
2022-12-16T02:25:56.184Z,39.53
2022-12-16T02:28:40.383Z,38.15
2022-12-16T02:31:53.738Z,38.08
2022-12-16T02:34:49.399Z,37.00
2022-12-16T02:37:47.991Z,39.10
2022-12-16T02:40:24.394Z,38.08
2022-12-16T02:43:00.284Z,38.45
2022-12-16T02:45:30.985Z,38.38
2022-12-16T02:47:57.842Z,37.67
2022-12-16T02:50:27.191Z,40.40
2022-12-16T02:52:55.728Z,37.55
2022-12-16T02:55:29.304Z,37.63
2022-12-16T02:58:18.876Z,38.15
2022-12-16T03:01:17.773Z,36.15
2022-12-16T03:03:53.416Z,36.20
2022-12-16T03:06:22.471Z,36.22
2022-12-16T03:08:53.809Z,37.90
2022-12-16T03:13:51.810Z,36.20
2022-12-16T03:18:52.644Z,35.05
2022-12-16T03:21:25.228Z,35.47
2022-12-16T03:24:00.255Z,36.97
2022-12-16T03:26:56.463Z,37.03
2022-12-16T03:29:50.578Z,34.50
2022-12-16T03:32:30.728Z,36.63
2022-12-16T03:35:02.291Z,36.95
2022-12-16T03:37:33.747Z,36.35
2022-12-16T03:40:05.776Z,37.05
2022-12-16T03:42:32.929Z,34.75
2022-12-16T03:44:59.899Z,35.03
2022-12-16T03:47:28.933Z,37.13
2022-12-16T03:49:55.742Z,34.22
2022-12-16T03:52:22.389Z,34.35
2022-12-16T03:54:49.019Z,33.00
2022-12-16T03:57:15.969Z,32.80
2022-12-16T03:59:43.328Z,32.97
2022-12-16T04:02:10.169Z,32.90
2022-12-16T04:04:37.156Z,34.88
2022-12-16T04:07:24.253Z,34.13
2022-12-16T04:09:52.207Z,33.35
2022-12-16T04:12:38.512Z,33.63
2022-12-16T04:15:24.816Z,32.55
2022-12-16T04:18:09.981Z,33.35
2022-12-16T04:20:59.197Z,35.50
2022-12-16T04:23:46.199Z,35.22
2022-12-16T04:26:12.951Z,32.92
2022-12-16T04:28:39.739Z,33.15
2022-12-16T04:31:07.028Z,34.20
2022-12-16T04:33:52.423Z,32.58
2022-12-16T04:36:37.520Z,32.70
2022-12-16T04:39:22.958Z,31.73
2022-12-16T04:42:11.718Z,34.53
2022-12-16T04:44:57.748Z,33.65
2022-12-16T04:47:43.425Z,32.65
2022-12-16T04:50:29.132Z,33.80
2022-12-16T04:53:14.398Z,34.03
2022-12-16T04:56:04.064Z,31.40
2022-12-16T04:58:49.945Z,33.05
2022-12-16T05:01:35.467Z,33.17
2022-12-16T05:04:20.725Z,31.70
2022-12-16T05:07:06.193Z,33.95
2022-12-16T05:09:51.680Z,34.38
2022-12-16T05:12:37.042Z,34.70
2022-12-16T05:15:22.264Z,33.05
2022-12-16T05:18:07.466Z,33.30
2022-12-16T05:20:52.762Z,30.92
2022-12-16T05:23:38.308Z,33.90
2022-12-16T05:26:23.417Z,33.90
2022-12-16T05:29:08.614Z,33.42
2022-12-16T05:31:53.885Z,33.15
2022-12-16T05:34:39.365Z,34.67
2022-12-16T05:37:24.961Z,34.90
2022-12-16T05:40:10.072Z,33.92
2022-12-16T05:42:55.261Z,33.15
2022-12-16T05:45:40.455Z,34.67
2022-12-16T05:48:25.793Z,36.47
2022-12-16T05:51:12.925Z,36.30
2022-12-16T05:53:58.299Z,35.90
2022-12-16T05:56:43.753Z,38.10
2022-12-16T05:59:29.055Z,36.55
2022-12-16T06:02:14.508Z,36.55
2022-12-16T06:04:59.751Z,37.42
2022-12-16T06:07:45.098Z,36.35
2022-12-16T06:10:30.477Z,37.33
2022-12-16T06:13:15.808Z,39.75
2022-12-16T06:16:06.689Z,37.15
2022-12-16T06:18:53.675Z,37.72
2022-12-16T06:21:38.922Z,34.70
2022-12-16T06:24:24.432Z,39.80
2022-12-16T06:27:09.961Z,39.38
2022-12-16T06:29:55.116Z,50.05
2022-12-16T06:32:40.179Z,45.30
2022-12-16T06:35:25.357Z,40.03
2022-12-16T06:38:10.662Z,37.80
2022-12-16T06:40:56.079Z,37.65
2022-12-16T06:43:41.322Z,37.92
2022-12-16T06:46:26.863Z,35.38
2022-12-16T06:49:12.231Z,35.63
2022-12-16T06:51:57.690Z,34.88
2022-12-16T06:54:43.066Z,34.10
2022-12-16T06:57:28.271Z,34.20
2022-12-16T07:00:13.728Z,36.28
2022-12-16T07:02:58.943Z,32.97
2022-12-16T07:05:44.229Z,34.20
2022-12-16T07:08:29.516Z,33.70
2022-12-16T07:11:17.092Z,34.38
2022-12-16T07:14:03.016Z,33.85
2022-12-16T07:16:48.292Z,35.00
2022-12-16T07:19:34.022Z,35.03
2022-12-16T07:22:19.133Z,34.92
2022-12-16T07:25:04.649Z,32.00
2022-12-16T07:27:49.998Z,33.08
2022-12-16T07:30:35.418Z,32.80
2022-12-16T07:33:21.073Z,32.20
2022-12-16T07:36:06.554Z,33.45
2022-12-16T07:38:51.678Z,35.05
2022-12-16T07:41:36.938Z,33.78
2022-12-16T07:44:23.328Z,33.42
2022-12-16T07:47:08.831Z,31.67
2022-12-16T07:49:55.306Z,34.65
2022-12-16T07:52:41.649Z,30.80
2022-12-16T07:55:27.288Z,34.15
2022-12-16T07:58:12.858Z,33.45
2022-12-16T08:00:58.438Z,31.92
2022-12-16T08:03:43.588Z,33.65
2022-12-16T08:06:28.922Z,32.95
2022-12-16T08:09:14.464Z,34.13
2022-12-16T08:12:04.198Z,32.97
2022-12-16T08:14:49.488Z,32.83
2022-12-16T08:17:35.241Z,33.50
2022-12-16T08:20:20.351Z,35.67
2022-12-16T08:23:05.955Z,35.80
2022-12-16T08:25:51.399Z,34.33
2022-12-16T08:28:36.578Z,35.58
2022-12-16T08:31:22.026Z,35.13
2022-12-16T08:34:07.529Z,34.03
2022-12-16T08:36:53.175Z,34.33
2022-12-16T08:39:39.220Z,37.33
2022-12-16T08:42:24.775Z,33.08
2022-12-16T08:45:10.242Z,36.08
2022-12-16T08:47:55.603Z,35.05
2022-12-16T08:50:41.393Z,35.47
2022-12-16T08:53:26.356Z,34.45
2022-12-16T08:56:11.653Z,33.90
2022-12-16T08:58:56.995Z,33.80
2022-12-16T09:01:42.465Z,35.08
2022-12-16T09:04:27.976Z,34.70
2022-12-16T09:07:13.369Z,35.47
2022-12-16T09:09:59.016Z,35.05
2022-12-16T09:12:44.451Z,35.17
2022-12-16T09:15:29.649Z,37.17
2022-12-16T09:18:15.359Z,36.20
2022-12-16T09:21:00.883Z,34.90
2022-12-16T09:23:46.476Z,36.72
2022-12-16T09:26:31.850Z,36.58
2022-12-16T09:29:17.542Z,35.90
2022-12-16T09:32:02.830Z,40.00
2022-12-16T09:34:48.140Z,36.58
2022-12-16T09:37:33.731Z,37.40
2022-12-16T09:40:19.123Z,36.13
2022-12-16T09:43:17.418Z,37.25
2022-12-16T09:46:04.358Z,35.22
2022-12-16T09:49:29.945Z,36.38
2022-12-16T09:52:18.496Z,34.97
2022-12-16T09:55:05.824Z,35.42
2022-12-16T09:57:54.108Z,35.92
2022-12-16T10:00:46.382Z,36.40
2022-12-16T10:03:39.992Z,37.55
2022-12-16T10:06:54.716Z,34.40
2022-12-16T10:09:48.366Z,35.60
2022-12-16T10:12:53.711Z,37.25
2022-12-16T10:15:54.582Z,37.90
2022-12-16T10:19:07.508Z,38.92
2022-12-16T10:22:06.209Z,37.50
2022-12-16T10:25:04.972Z,38.42
2022-12-16T10:28:05.817Z,35.53
2022-12-16T10:30:53.332Z,37.92
2022-12-16T10:33:40.040Z,34.85
2022-12-16T10:36:32.551Z,38.38
2022-12-16T10:39:28.783Z,38.10
2022-12-16T10:42:18.718Z,36.10
2022-12-16T10:45:18.383Z,36.20
2022-12-16T10:48:03.900Z,38.13
2022-12-16T10:50:49.023Z,37.83
2022-12-16T10:53:37.725Z,37.63
2022-12-16T10:57:01.492Z,37.25
2022-12-16T10:59:55.738Z,37.92
2022-12-16T11:02:44.431Z,36.90
2022-12-16T11:05:44.990Z,37.60
2022-12-16T11:08:49.483Z,36.93
2022-12-16T11:11:47.925Z,36.08
2022-12-16T11:14:59.560Z,38.00
2022-12-16T11:17:47.310Z,37.33
2022-12-16T11:20:34.614Z,38.38
2022-12-16T11:23:40.854Z,35.33
2022-12-16T11:26:39.825Z,36.80
2022-12-16T11:29:35.269Z,39.15
2022-12-16T11:32:22.961Z,44.20
2022-12-16T11:35:12.777Z,40.75
2022-12-16T11:38:00.472Z,41.63
2022-12-16T11:40:48.818Z,39.50
2022-12-16T11:43:36.409Z,40.00
2022-12-16T11:46:28.161Z,36.55
2022-12-16T11:49:25.197Z,38.80
2022-12-16T11:52:38.961Z,38.47
2022-12-16T11:56:03.375Z,39.75
2022-12-16T11:58:57.282Z,38.10
2022-12-16T12:02:04.174Z,40.20
2022-12-16T12:04:49.429Z,41.30
2022-12-16T12:07:56.890Z,39.47
2022-12-16T12:10:49.824Z,38.58
2022-12-16T12:14:08.774Z,39.85
2022-12-16T12:17:16.280Z,36.38
2022-12-16T12:20:06.966Z,38.65
2022-12-16T12:22:57.562Z,39.33
2022-12-16T12:25:48.523Z,40.83
2022-12-16T12:28:39.661Z,41.53
2022-12-16T12:32:09.059Z,39.28
2022-12-16T12:35:22.455Z,38.90
2022-12-16T12:38:10.401Z,38.35
2022-12-16T12:41:16.619Z,41.45
2022-12-16T12:44:10.624Z,41.25
2022-12-16T12:47:06.963Z,41.75
2022-12-16T12:50:07.170Z,41.08
2022-12-16T12:53:18.934Z,40.50
2022-12-16T12:56:18.497Z,42.10
2022-12-16T12:59:04.995Z,41.92
2022-12-16T13:01:53.733Z,42.70
2022-12-16T13:04:40.950Z,42.15
2022-12-16T13:07:27.113Z,42.35
2022-12-16T13:10:32.676Z,43.72
2022-12-16T13:13:36.578Z,42.50
2022-12-16T13:16:23.935Z,45.90
2022-12-16T13:19:48.085Z,46.80
2022-12-16T13:22:50.121Z,45.00
2022-12-16T13:28:47.045Z,42.60
2022-12-16T13:31:33.309Z,42.53
2022-12-16T13:34:43.805Z,43.00
2022-12-16T13:37:43.165Z,44.15
2022-12-16T13:40:42.679Z,44.10
2022-12-16T13:44:00.156Z,44.03
2022-12-16T13:47:06.171Z,43.17
2022-12-16T13:49:54.325Z,44.10
2022-12-16T13:52:48.791Z,44.05
2022-12-16T13:55:39.418Z,42.72
2022-12-16T13:58:39.026Z,43.33
2022-12-16T14:01:35.654Z,43.47
2022-12-16T14:04:21.633Z,43.63
2022-12-16T14:07:08.484Z,42.08
2022-12-16T14:10:01.023Z,44.42
2022-12-16T14:13:02.105Z,43.95
2022-12-16T14:15:55.924Z,44.60
2022-12-16T14:19:15.896Z,44.63
2022-12-16T14:22:08.436Z,41.97
2022-12-16T14:24:56.999Z,42.60
2022-12-16T14:27:43.358Z,40.13
2022-12-16T14:30:35.007Z,38.90
2022-12-16T14:33:44.400Z,38.78
2022-12-16T14:36:44.988Z,37.95
2022-12-16T14:39:41.459Z,37.22
2022-12-16T14:42:37.828Z,36.45
2022-12-16T14:45:38.440Z,36.15
2022-12-16T14:48:49.794Z,34.65
2022-12-16T14:51:55.301Z,33.47
2022-12-16T14:54:55.357Z,34.55
2022-12-16T14:57:40.784Z,35.92
2022-12-16T15:00:26.469Z,35.20
2022-12-16T15:03:14.733Z,35.83
2022-12-16T15:06:02.214Z,35.83
2022-12-16T15:08:51.679Z,36.25
2022-12-16T15:11:39.778Z,35.67
2022-12-16T15:14:28.036Z,35.15
2022-12-16T15:17:14.083Z,33.30
2022-12-16T15:20:08.140Z,35.35
2022-12-16T15:22:54.055Z,35.10
2022-12-16T15:25:45.080Z,34.88
2022-12-16T15:28:45.775Z,37.17
2022-12-16T15:31:45.246Z,38.63
2022-12-16T15:35:07.322Z,36.25
2022-12-16T15:38:03.916Z,35.85
2022-12-16T15:40:52.042Z,36.83
2022-12-16T15:43:57.325Z,37.58
2022-12-16T15:46:45.739Z,38.00
2022-12-16T15:49:57.944Z,40.22
2022-12-16T15:52:52.560Z,36.67
2022-12-16T15:58:51.849Z,37.72
2022-12-16T16:01:43.602Z,37.92
2022-12-16T16:04:40.145Z,41.30
2022-12-16T16:07:38.788Z,39.25
2022-12-16T16:10:33.686Z,41.28
2022-12-16T16:13:19.167Z,38.40
2022-12-16T16:16:04.796Z,39.35
2022-12-16T16:18:50.436Z,39.28
2022-12-16T16:21:35.796Z,38.92
2022-12-16T16:24:21.468Z,39.15
2022-12-16T16:27:07.175Z,39.53
2022-12-16T16:29:52.510Z,37.92
2022-12-16T16:32:38.066Z,42.92
2022-12-16T16:35:23.654Z,41.05
2022-12-16T16:38:11.174Z,42.17
2022-12-16T16:41:01.606Z,42.70
2022-12-16T16:43:47.733Z,41.65
2022-12-16T16:46:38.891Z,42.47
2022-12-16T16:49:28.644Z,42.35
2022-12-16T16:52:14.299Z,42.55
2022-12-16T16:54:59.687Z,42.97
2022-12-16T16:57:50.721Z,41.63
2022-12-16T17:00:36.265Z,42.53
2022-12-16T17:03:22.161Z,44.47
2022-12-16T17:06:07.537Z,43.25
2022-12-16T17:08:53.117Z,42.67
2022-12-16T17:12:00.704Z,39.60
2022-12-16T17:14:46.043Z,39.53
2022-12-16T17:17:31.486Z,37.65
2022-12-16T17:20:16.976Z,38.50
2022-12-16T17:23:02.137Z,40.47
2022-12-16T17:25:47.634Z,39.88
2022-12-16T17:28:32.778Z,40.40
2022-12-16T17:31:18.296Z,41.33
2022-12-16T17:34:03.937Z,38.83
2022-12-16T17:36:49.352Z,37.75
2022-12-16T17:39:34.546Z,38.78
2022-12-16T17:42:19.852Z,38.38
2022-12-16T17:45:05.351Z,39.17
2022-12-16T17:47:50.901Z,38.88
2022-12-16T17:50:36.402Z,40.88
2022-12-16T17:53:21.622Z,39.83
2022-12-16T17:56:07.049Z,40.20
2022-12-16T17:58:54.917Z,40.08
2022-12-16T18:01:41.104Z,41.85
2022-12-16T18:04:27.044Z,39.88
2022-12-16T18:07:12.589Z,41.25
2022-12-16T18:09:58.154Z,40.63
2022-12-16T18:12:43.320Z,40.45
2022-12-16T18:15:45.448Z,40.63
2022-12-16T18:18:30.712Z,41.20
2022-12-16T18:21:16.096Z,40.28
2022-12-16T18:24:01.668Z,42.53
2022-12-16T18:26:46.987Z,42.13
2022-12-16T18:29:32.512Z,39.22
2022-12-16T18:32:17.688Z,40.97
2022-12-16T18:35:03.325Z,41.97
2022-12-16T18:37:48.319Z,39.75
2022-12-16T18:40:34.022Z,41.53
2022-12-16T18:43:19.483Z,43.60
2022-12-16T18:46:11.209Z,41.10
2022-12-16T18:51:42.571Z,38.53
2022-12-16T18:54:28.166Z,40.80
2022-12-16T18:57:13.307Z,39.90
2022-12-16T18:59:58.805Z,40.25
2022-12-16T19:02:44.808Z,40.17
2022-12-16T19:05:30.120Z,40.75
2022-12-16T19:08:15.534Z,38.80
2022-12-16T19:11:00.746Z,39.50
2022-12-16T19:13:46.268Z,38.25
2022-12-16T19:16:31.559Z,39.55
2022-12-16T19:19:20.224Z,38.75
2022-12-16T19:22:06.500Z,39.50
2022-12-16T19:24:51.888Z,39.33
2022-12-16T19:27:37.270Z,40.65
2022-12-16T19:30:23.203Z,37.63
2022-12-16T19:33:08.666Z,37.80
2022-12-16T19:35:54.635Z,39.30
2022-12-16T19:38:42.320Z,37.42
2022-12-16T19:41:35.652Z,37.13
2022-12-16T19:44:22.172Z,34.72
2022-12-16T19:47:08.049Z,36.78
2022-12-16T19:49:54.789Z,36.00
2022-12-16T19:52:59.701Z,34.50
2022-12-16T19:55:45.214Z,35.42
2022-12-16T19:58:30.624Z,35.78
2022-12-16T20:01:16.169Z,37.45
2022-12-16T20:04:01.444Z,35.38
2022-12-16T20:06:46.869Z,35.65
2022-12-16T20:09:32.227Z,34.33
2022-12-16T20:12:17.629Z,37.05
2022-12-16T20:15:03.411Z,35.08
2022-12-16T20:17:48.830Z,36.78
2022-12-16T20:20:33.852Z,36.00
2022-12-16T20:23:26.872Z,34.65
2022-12-16T20:26:17.550Z,34.65
2022-12-16T20:29:03.091Z,33.63
2022-12-16T20:31:48.796Z,34.65
2022-12-16T20:34:34.505Z,34.45
2022-12-16T20:37:19.676Z,34.50
2022-12-16T20:40:04.921Z,35.13
2022-12-16T20:42:50.186Z,33.92
2022-12-16T20:45:36.761Z,33.85
2022-12-16T20:48:22.756Z,34.83
2022-12-16T20:51:13.266Z,37.00
2022-12-16T20:53:58.335Z,38.55
2022-12-16T20:56:43.788Z,40.33
2022-12-16T20:59:29.255Z,35.75
2022-12-16T21:02:23.218Z,36.53
2022-12-16T21:05:10.651Z,34.08
2022-12-16T21:07:56.885Z,34.67
2022-12-16T21:10:42.247Z,35.25
2022-12-16T21:13:30.242Z,34.15
2022-12-16T21:16:16.515Z,33.85
2022-12-16T21:19:01.797Z,34.72
2022-12-16T21:21:46.967Z,36.45
2022-12-16T21:24:32.434Z,34.83
2022-12-16T21:27:18.003Z,36.80
2022-12-16T21:30:03.432Z,36.88
2022-12-16T21:32:49.067Z,35.50
2022-12-16T21:35:34.311Z,36.60
2022-12-16T21:38:19.745Z,35.15
2022-12-16T21:41:10.877Z,36.80
2022-12-16T21:43:56.052Z,33.92
2022-12-16T21:46:42.231Z,39.45
2022-12-16T21:49:27.420Z,43.28
2022-12-16T21:52:12.878Z,39.10
2022-12-16T21:54:58.379Z,36.70
2022-12-16T21:57:43.918Z,35.10
2022-12-16T22:00:30.056Z,34.67
2022-12-16T22:03:15.496Z,33.38
2022-12-16T22:06:01.962Z,35.17
2022-12-16T22:08:47.479Z,35.35
2022-12-16T22:11:33.309Z,35.10
2022-12-16T22:14:18.829Z,36.17
2022-12-16T22:17:05.972Z,38.33
2022-12-16T22:19:51.543Z,35.38
2022-12-16T22:22:37.105Z,36.53
2022-12-16T22:25:22.879Z,36.67
2022-12-16T22:28:08.358Z,34.75
2022-12-16T22:30:56.347Z,34.90
2022-12-16T22:33:41.663Z,36.42
2022-12-16T22:36:28.679Z,34.35
2022-12-16T22:39:14.306Z,35.17
2022-12-16T22:41:59.432Z,34.33
2022-12-16T22:44:45.054Z,34.60
2022-12-16T22:47:30.247Z,34.30
2022-12-16T22:50:15.343Z,32.95
2022-12-16T22:53:00.771Z,34.15
2022-12-16T22:55:45.846Z,34.92
2022-12-16T22:58:31.404Z,32.58
2022-12-16T23:01:16.535Z,33.17
2022-12-16T23:04:01.988Z,34.50
2022-12-16T23:06:47.200Z,34.38
2022-12-16T23:09:32.391Z,32.42
2022-12-16T23:12:17.926Z,33.38
2022-12-16T23:15:03.356Z,34.70
2022-12-16T23:17:48.707Z,33.63
2022-12-16T23:20:34.084Z,34.50
2022-12-16T23:23:19.610Z,34.70
2022-12-16T23:26:15.286Z,33.83
2022-12-16T23:29:00.773Z,32.65
2022-12-16T23:31:46.352Z,36.22
2022-12-16T23:34:32.358Z,32.28
2022-12-16T23:37:17.534Z,33.00
2022-12-16T23:40:03.087Z,34.80
2022-12-16T23:42:48.609Z,32.85
2022-12-16T23:45:33.955Z,33.13
2022-12-16T23:48:25.121Z,33.97
2022-12-16T23:51:10.513Z,34.45
2022-12-16T23:53:56.660Z,32.90
2022-12-16T23:56:42.673Z,32.85
2022-12-16T23:59:28.155Z,32.95
